createdAt,value
2018-03-03T00:00:03.343Z,98604.19
2018-03-03T00:02:31.206Z,98610.75
2018-03-03T00:04:58.662Z,98594.73
2018-03-03T00:07:26.239Z,98593.56
2018-03-03T00:09:54.655Z,98585.67
2018-03-03T00:12:22.077Z,98582.50
2018-03-03T00:14:49.472Z,98586.52
2018-03-03T00:17:16.936Z,98577.30
2018-03-03T00:19:44.323Z,98577.17
2018-03-03T00:22:19.336Z,98570.87
2018-03-03T00:24:47.268Z,98574.25
2018-03-03T00:27:14.678Z,98582.19
2018-03-03T00:29:42.090Z,98577.11
2018-03-03T00:32:09.478Z,98572.55
2018-03-03T00:34:36.952Z,98572.16
2018-03-03T00:37:04.314Z,98568.63
2018-03-03T00:39:31.756Z,98572.94
2018-03-03T00:41:59.145Z,98573.33
2018-03-03T00:44:26.570Z,98570.38
2018-03-03T00:46:55.155Z,98589.29
2018-03-03T00:49:22.580Z,98593.86
2018-03-03T00:51:50.036Z,98586.25
2018-03-03T00:54:17.442Z,98583.39
2018-03-03T00:56:44.832Z,98582.58
2018-03-03T00:59:12.240Z,98585.66
2018-03-03T01:01:39.636Z,98594.86
2018-03-03T01:04:07.192Z,98593.73
2018-03-03T01:06:34.696Z,98593.94
2018-03-03T01:09:02.172Z,98590.08
2018-03-03T01:11:29.551Z,98581.07
2018-03-03T01:13:56.941Z,98576.66
2018-03-03T01:16:24.352Z,98576.23
2018-03-03T01:18:51.830Z,98581.97
2018-03-03T01:21:19.224Z,98579.20
2018-03-03T01:23:47.014Z,98579.31
2018-03-03T01:26:14.432Z,98577.53
2018-03-03T01:28:41.846Z,98574.16
2018-03-03T01:31:09.215Z,98563.22
2018-03-03T01:33:36.633Z,98560.55
2018-03-03T01:36:04.010Z,98554.60
2018-03-03T01:38:31.668Z,98553.53
2018-03-03T01:40:59.085Z,98554.28
2018-03-03T01:43:26.583Z,98561.69
2018-03-03T01:45:54.936Z,98559.20
2018-03-03T01:48:22.339Z,98565.84
2018-03-03T01:50:49.757Z,98571.54
2018-03-03T01:53:17.234Z,98570.43
2018-03-03T01:55:44.625Z,98566.86
2018-03-03T01:58:12.074Z,98564.14
2018-03-03T02:00:41.017Z,98558.67
2018-03-03T02:03:09.281Z,98549.80
2018-03-03T02:05:44.280Z,98549.70
2018-03-03T02:08:11.888Z,98539.11
2018-03-03T02:10:39.284Z,98540.44
2018-03-03T02:13:06.897Z,98535.17
2018-03-03T02:15:34.374Z,98532.43
2018-03-03T02:18:01.769Z,98534.44
2018-03-03T02:20:29.156Z,98533.28
2018-03-03T02:22:56.542Z,98538.73
2018-03-03T02:25:23.944Z,98544.38
2018-03-03T02:27:51.349Z,98533.56
2018-03-03T02:30:18.849Z,98531.80
2018-03-03T02:32:46.261Z,98527.80
2018-03-03T02:35:13.684Z,98520.16
2018-03-03T02:37:41.079Z,98514.64
2018-03-03T02:40:08.501Z,98518.27
2018-03-03T02:42:35.895Z,98512.41
2018-03-03T02:45:03.275Z,98514.52
2018-03-03T02:47:30.756Z,98509.52
2018-03-03T02:49:58.160Z,98523.97
2018-03-03T02:52:25.574Z,98511.98
2018-03-03T02:54:53.079Z,98499.73
2018-03-03T02:57:20.488Z,98491.89
2018-03-03T02:59:48.483Z,98479.77
2018-03-03T03:02:15.914Z,98474.45
2018-03-03T03:04:43.363Z,98489.44
2018-03-03T03:07:10.805Z,98494.03
2018-03-03T03:09:38.218Z,98487.97
2018-03-03T03:12:05.627Z,98482.94
2018-03-03T03:14:33.219Z,98483.21
2018-03-03T03:17:00.628Z,98473.22
2018-03-03T03:19:28.040Z,98469.63
2018-03-03T03:21:55.468Z,98465.11
2018-03-03T03:24:22.872Z,98458.36
2018-03-03T03:26:50.300Z,98456.41
2018-03-03T03:29:17.734Z,98461.17
2018-03-03T03:31:45.120Z,98461.28
2018-03-03T03:34:12.647Z,98455.20
2018-03-03T03:36:40.022Z,98452.64
2018-03-03T03:39:07.408Z,98450.05
2018-03-03T03:41:34.813Z,98456.34
2018-03-03T03:44:02.212Z,98456.28
2018-03-03T03:46:29.721Z,98455.05
2018-03-03T03:48:57.135Z,98450.08
2018-03-03T03:51:24.535Z,98457.08
2018-03-03T03:53:51.914Z,98445.55
2018-03-03T03:56:19.308Z,98448.69
2018-03-03T03:58:46.704Z,98442.15
2018-03-03T04:01:14.113Z,98445.78
2018-03-03T04:03:41.508Z,98448.33
2018-03-03T04:06:08.887Z,98449.58
2018-03-03T04:08:36.277Z,98450.09
2018-03-03T04:11:03.686Z,98449.53
2018-03-03T04:13:31.086Z,98438.27
2018-03-03T04:15:58.475Z,98438.59
2018-03-03T04:18:25.868Z,98436.19
2018-03-03T04:20:53.300Z,98426.80
2018-03-03T04:23:20.698Z,98424.59
2018-03-03T04:25:48.873Z,98423.44
2018-03-03T04:28:16.257Z,98422.28
2018-03-03T04:30:43.669Z,98421.57
2018-03-03T04:33:11.061Z,98421.03
2018-03-03T04:35:38.569Z,98412.97
2018-03-03T04:38:05.953Z,98415.11
2018-03-03T04:40:33.399Z,98415.45
2018-03-03T04:43:01.306Z,98417.29
2018-03-03T04:45:28.879Z,98408.08
2018-03-03T04:47:56.251Z,98412.14
2018-03-03T04:50:23.637Z,98412.46
2018-03-03T04:52:51.020Z,98415.95
2018-03-03T04:55:18.413Z,98413.47
2018-03-03T04:57:45.856Z,98415.80
2018-03-03T05:00:19.180Z,98407.24
2018-03-03T05:16:25.856Z,98387.10
2018-03-03T05:32:26.552Z,98381.97
2018-03-03T05:34:59.508Z,98378.47
2018-03-03T05:37:29.947Z,98381.23
2018-03-03T05:40:03.002Z,98378.55
2018-03-03T05:42:36.168Z,98377.43
2018-03-03T05:45:09.333Z,98379.08
2018-03-03T05:47:42.277Z,98374.71
2018-03-03T05:50:15.418Z,98375.64
2018-03-03T05:52:53.752Z,98375.94
2018-03-03T05:55:39.922Z,98379.80
2018-03-03T05:58:22.119Z,98381.86
2018-03-03T06:14:14.411Z,98366.82
2018-03-03T06:16:41.884Z,98370.91
2018-03-03T06:19:09.384Z,98369.59
2018-03-03T06:21:37.000Z,98363.41
2018-03-03T06:24:04.401Z,98366.83
2018-03-03T06:26:31.784Z,98368.00
2018-03-03T06:28:59.183Z,98371.21
2018-03-03T06:31:26.648Z,98367.66
2018-03-03T06:33:54.709Z,98368.77
2018-03-03T06:36:22.095Z,98368.45
2018-03-03T06:38:49.662Z,98373.34
2018-03-03T06:41:17.071Z,98370.48
2018-03-03T06:43:44.520Z,98371.75
2018-03-03T06:46:12.208Z,98371.26
2018-03-03T06:48:39.864Z,98373.47
2018-03-03T06:51:07.257Z,98372.83
2018-03-03T06:53:34.775Z,98381.33
2018-03-03T06:56:02.218Z,98370.70
2018-03-03T06:58:30.111Z,98378.50
2018-03-03T07:00:57.510Z,98377.75
2018-03-03T07:03:25.010Z,98380.22
2018-03-03T07:05:52.656Z,98376.25
2018-03-03T07:08:20.368Z,98381.48
2018-03-03T07:10:47.774Z,98391.00
2018-03-03T07:13:15.368Z,98386.84
2018-03-03T07:15:42.763Z,98386.30
2018-03-03T07:18:10.297Z,98380.45
2018-03-03T07:20:37.849Z,98384.38
2018-03-03T07:23:05.396Z,98377.58
2018-03-03T07:25:33.197Z,98378.73
2018-03-03T07:28:00.647Z,98383.98
2018-03-03T07:30:28.202Z,98375.81
2018-03-03T07:32:55.706Z,98386.49
2018-03-03T07:35:23.514Z,98391.88
2018-03-03T07:37:51.216Z,98383.19
2018-03-03T07:40:18.656Z,98378.59
2018-03-03T07:42:46.597Z,98381.28
2018-03-03T07:45:14.041Z,98381.23
2018-03-03T07:47:41.549Z,98384.64
2018-03-03T07:50:08.996Z,98385.89
2018-03-03T07:52:36.453Z,98382.24
2018-03-03T07:55:03.863Z,98374.02
2018-03-03T07:57:31.253Z,98372.52
2018-03-03T07:59:58.800Z,98374.88
2018-03-03T08:02:26.201Z,98376.59
2018-03-03T08:04:53.627Z,98372.41
2018-03-03T08:07:21.020Z,98375.01
2018-03-03T08:09:48.869Z,98374.37
2018-03-03T08:12:16.606Z,98374.59
2018-03-03T08:14:44.045Z,98370.89
2018-03-03T08:17:11.454Z,98374.19
2018-03-03T08:19:38.845Z,98367.98
2018-03-03T08:22:06.722Z,98368.25
2018-03-03T08:24:34.234Z,98367.19
2018-03-03T08:27:01.809Z,98374.59
2018-03-03T08:29:29.278Z,98370.41
2018-03-03T08:31:56.815Z,98365.86
2018-03-03T08:34:24.219Z,98356.65
2018-03-03T08:36:51.611Z,98367.62
2018-03-03T08:39:19.049Z,98364.27
2018-03-03T08:41:46.588Z,98367.52
2018-03-03T08:44:13.993Z,98364.70
2018-03-03T08:46:41.424Z,98361.94
2018-03-03T08:49:08.930Z,98369.14
2018-03-03T08:51:40.509Z,98375.58
2018-03-03T08:54:07.921Z,98370.82
2018-03-03T08:56:35.309Z,98366.84
2018-03-03T08:59:02.730Z,98369.63
2018-03-03T09:01:30.269Z,98368.75
2018-03-03T09:03:57.722Z,98381.34
2018-03-03T09:06:25.135Z,98371.38
2018-03-03T09:08:52.602Z,98378.02
2018-03-03T09:11:20.000Z,98385.25
2018-03-03T09:13:47.396Z,98379.11
2018-03-03T09:16:14.798Z,98376.41
2018-03-03T09:18:42.267Z,98380.03
2018-03-03T09:21:10.861Z,98375.41
2018-03-03T09:23:38.253Z,98373.20
2018-03-03T09:26:05.673Z,98382.94
2018-03-03T09:28:33.121Z,98388.80
2018-03-03T09:31:00.868Z,98384.86
2018-03-03T09:33:28.393Z,98385.91
2018-03-03T09:35:55.848Z,98383.38
2018-03-03T09:38:24.256Z,98386.63
2018-03-03T09:40:51.673Z,98379.92
2018-03-03T09:43:19.176Z,98375.72
2018-03-03T09:45:46.736Z,98379.34
2018-03-03T09:48:14.124Z,98378.01
2018-03-03T09:50:41.512Z,98376.42
2018-03-03T09:53:09.069Z,98380.65
2018-03-03T09:55:36.526Z,98374.83
2018-03-03T09:58:04.248Z,98376.02
2018-03-03T10:00:31.667Z,98369.08
2018-03-03T10:02:59.190Z,98374.81
2018-03-03T10:05:26.596Z,98370.98
2018-03-03T10:07:54.078Z,98375.23
2018-03-03T10:10:21.469Z,98369.35
2018-03-03T10:12:49.254Z,98367.52
2018-03-03T10:15:16.787Z,98368.94
2018-03-03T10:17:44.165Z,98367.62
2018-03-03T10:20:11.915Z,98369.48
2018-03-03T10:22:40.222Z,98367.54
2018-03-03T10:25:07.951Z,98372.30
2018-03-03T10:27:35.389Z,98366.44
2018-03-03T10:30:03.141Z,98366.97
2018-03-03T10:32:30.531Z,98354.71
2018-03-03T10:34:58.034Z,98356.59
2018-03-03T10:37:25.702Z,98362.95
2018-03-03T10:39:53.117Z,98352.11
2018-03-03T10:42:20.568Z,98351.29
2018-03-03T10:44:48.036Z,98353.08
2018-03-03T10:47:15.459Z,98347.91
2018-03-03T10:49:42.868Z,98350.25
2018-03-03T10:52:10.462Z,98339.14
2018-03-03T10:54:37.944Z,98344.05
2018-03-03T10:57:05.411Z,98343.10
2018-03-03T10:59:32.872Z,98340.41
2018-03-03T11:02:00.277Z,98341.72
2018-03-03T11:04:27.706Z,98332.83
2018-03-03T11:06:55.116Z,98337.13
2018-03-03T11:09:22.712Z,98331.78
2018-03-03T11:11:50.160Z,98324.36
2018-03-03T11:14:17.942Z,98329.12
2018-03-03T11:16:45.372Z,98320.69
2018-03-03T11:19:12.777Z,98322.00
2018-03-03T11:21:40.247Z,98322.31
2018-03-03T11:24:07.639Z,98315.31
2018-03-03T11:26:35.041Z,98315.08
2018-03-03T11:29:02.432Z,98320.45
2018-03-03T11:31:29.841Z,98315.51
2018-03-03T11:33:57.699Z,98317.45
2018-03-03T11:36:25.123Z,98319.20
2018-03-03T11:38:52.579Z,98314.78
2018-03-03T11:41:19.973Z,98311.00
2018-03-03T11:43:47.361Z,98312.58
2018-03-03T11:46:14.845Z,98317.45
2018-03-03T11:48:42.214Z,98313.42
2018-03-03T11:51:09.627Z,98322.96
2018-03-03T11:53:37.239Z,98316.07
2018-03-03T11:56:05.780Z,98315.41
2018-03-03T11:58:33.560Z,98307.77
2018-03-03T12:01:00.972Z,98315.14
2018-03-03T12:03:28.594Z,98320.69
2018-03-03T12:05:55.993Z,98316.20
2018-03-03T12:08:23.395Z,98314.06
2018-03-03T12:10:50.891Z,98314.64
2018-03-03T12:13:18.344Z,98317.90
2018-03-03T12:15:45.748Z,98312.55
2018-03-03T12:18:13.244Z,98312.06
2018-03-03T12:20:40.696Z,98305.23
2018-03-03T12:23:08.299Z,98297.70
2018-03-03T12:25:35.681Z,98293.14
2018-03-03T12:28:03.085Z,98298.00
2018-03-03T12:30:30.502Z,98300.24
2018-03-03T12:32:57.921Z,98294.87
2018-03-03T12:35:25.328Z,98297.80
2018-03-03T12:37:52.744Z,98298.37
2018-03-03T12:40:20.160Z,98291.83
2018-03-03T12:42:47.628Z,98302.06
2018-03-03T12:45:15.070Z,98305.05
2018-03-03T12:47:42.457Z,98304.14
2018-03-03T12:50:09.870Z,98305.08
2018-03-03T12:52:37.522Z,98303.28
2018-03-03T12:55:05.027Z,98305.36
2018-03-03T12:57:32.482Z,98311.15
2018-03-03T12:59:59.888Z,98306.77
2018-03-03T13:02:27.325Z,98296.25
2018-03-03T13:04:54.726Z,98304.54
2018-03-03T13:07:22.172Z,98308.26
2018-03-03T13:09:50.178Z,98311.38
2018-03-03T13:12:17.778Z,98314.89
2018-03-03T13:14:45.672Z,98319.86
2018-03-03T13:17:13.204Z,98319.30
2018-03-03T13:19:40.621Z,98310.28
2018-03-03T13:22:08.296Z,98312.88
2018-03-03T13:24:35.651Z,98307.19
2018-03-03T13:27:05.384Z,98312.70
2018-03-03T13:29:32.961Z,98301.64
2018-03-03T13:32:00.365Z,98308.20
2018-03-03T13:34:27.805Z,98298.38
2018-03-03T13:36:55.233Z,98300.48
2018-03-03T13:39:22.738Z,98304.32
2018-03-03T13:41:50.920Z,98312.88
2018-03-03T13:44:18.479Z,98306.89
2018-03-03T13:46:46.125Z,98313.31
2018-03-03T13:49:13.571Z,98307.75
2018-03-03T13:51:40.988Z,98306.42
2018-03-03T13:54:08.419Z,98307.08
2018-03-03T13:56:35.880Z,98304.98
2018-03-03T13:59:03.292Z,98306.11
2018-03-03T14:01:30.700Z,98308.03
2018-03-03T14:03:58.132Z,98315.05
2018-03-03T14:06:25.766Z,98313.91
2018-03-03T14:08:53.318Z,98310.84
2018-03-03T14:11:20.792Z,98320.08
2018-03-03T14:13:48.217Z,98320.06
2018-03-03T14:16:15.706Z,98326.80
2018-03-03T14:18:43.112Z,98328.48
2018-03-03T14:21:10.641Z,98330.61
2018-03-03T14:23:38.057Z,98329.84
2018-03-03T14:26:05.497Z,98330.06
2018-03-03T14:28:33.028Z,98328.23
2018-03-03T14:31:00.436Z,98329.80
2018-03-03T14:33:27.838Z,98320.04
2018-03-03T14:35:55.298Z,98319.53
2018-03-03T14:38:22.676Z,98319.06
2018-03-03T14:40:51.395Z,98316.42
2018-03-03T14:43:18.922Z,98324.27
2018-03-03T14:45:47.252Z,98325.48
2018-03-03T14:48:14.689Z,98317.87
2018-03-03T14:50:42.105Z,98323.87
2018-03-03T14:53:10.035Z,98324.23
2018-03-03T14:55:37.425Z,98325.11
2018-03-03T14:58:04.847Z,98324.30
2018-03-03T15:00:32.251Z,98334.13
2018-03-03T15:02:59.693Z,98328.09
2018-03-03T15:05:27.097Z,98342.66
2018-03-03T15:07:54.538Z,98346.47
2018-03-03T15:10:21.942Z,98345.72
2018-03-03T15:12:49.327Z,98340.19
2018-03-03T15:15:16.725Z,98348.29
2018-03-03T15:17:44.125Z,98352.13
2018-03-03T15:20:11.520Z,98356.84
2018-03-03T15:22:39.131Z,98358.14
2018-03-03T15:25:06.525Z,98355.88
2018-03-03T15:27:33.909Z,98378.69
2018-03-03T15:30:01.408Z,98376.39
2018-03-03T15:32:28.822Z,98376.11
2018-03-03T15:34:56.249Z,98386.29
2018-03-03T15:37:23.792Z,98384.73
2018-03-03T15:39:51.210Z,98385.36
2018-03-03T15:42:18.815Z,98385.45
2018-03-03T15:44:46.232Z,98391.98
2018-03-03T15:47:13.604Z,98396.04
2018-03-03T15:49:41.027Z,98396.04
2018-03-03T15:52:08.404Z,98396.48
2018-03-03T15:54:35.823Z,98403.76
2018-03-03T15:57:03.214Z,98399.58
2018-03-03T15:59:30.600Z,98405.52
2018-03-03T16:01:58.112Z,98396.09
2018-03-03T16:04:25.495Z,98397.74
2018-03-03T16:06:52.956Z,98397.36
2018-03-03T16:09:20.874Z,98402.02
2018-03-03T16:11:48.310Z,98397.70
2018-03-03T16:14:15.704Z,98396.59
2018-03-03T16:16:44.204Z,98410.09
2018-03-03T16:19:11.586Z,98424.97
2018-03-03T16:21:39.016Z,98433.89
2018-03-03T16:24:06.386Z,98430.68
2018-03-03T16:26:33.807Z,98429.05
2018-03-03T16:29:01.208Z,98440.76
2018-03-03T16:31:28.625Z,98446.48
2018-03-03T16:33:56.050Z,98437.93
2018-03-03T16:36:23.428Z,98446.67
2018-03-03T16:38:51.004Z,98445.83
2018-03-03T16:41:18.401Z,98444.66
2018-03-03T16:43:45.985Z,98454.36
2018-03-03T16:46:13.481Z,98453.87
2018-03-03T16:48:41.143Z,98447.88
2018-03-03T16:51:08.545Z,98455.44
2018-03-03T16:53:35.941Z,98458.60
2018-03-03T16:56:03.324Z,98464.19
2018-03-03T16:58:30.907Z,98466.81
2018-03-03T17:00:58.320Z,98462.44
2018-03-03T17:03:25.727Z,98464.95
2018-03-03T17:05:53.133Z,98467.91
2018-03-03T17:08:21.209Z,98470.91
2018-03-03T17:10:48.606Z,98476.13
2018-03-03T17:13:16.012Z,98471.91
2018-03-03T17:15:43.534Z,98475.69
2018-03-03T17:18:10.996Z,98476.81
2018-03-03T17:20:38.382Z,98480.57
2018-03-03T17:23:05.778Z,98480.82
2018-03-03T17:25:33.186Z,98484.95
2018-03-03T17:28:00.630Z,98488.86
2018-03-03T17:30:28.003Z,98490.80
2018-03-03T17:32:55.489Z,98493.44
2018-03-03T17:35:22.917Z,98495.83
2018-03-03T17:37:52.221Z,98502.11
2018-03-03T17:40:19.763Z,98500.95
2018-03-03T17:42:47.167Z,98503.48
2018-03-03T17:45:14.576Z,98497.95
2018-03-03T17:47:42.489Z,98510.09
2018-03-03T17:50:09.900Z,98512.08
2018-03-03T17:52:37.290Z,98511.72
2018-03-03T17:55:04.693Z,98508.16
2018-03-03T17:57:32.088Z,98514.89
2018-03-03T17:59:59.600Z,98512.00
2018-03-03T18:02:27.002Z,98517.17
2018-03-03T18:04:54.443Z,98520.45
2018-03-03T18:07:22.121Z,98530.30
2018-03-03T18:09:49.594Z,98530.50
2018-03-03T18:12:17.996Z,98535.88
2018-03-03T18:14:45.902Z,98535.58
2018-03-03T18:17:13.524Z,98539.46
2018-03-03T18:19:40.934Z,98544.38
2018-03-03T18:22:09.203Z,98553.75
2018-03-03T18:24:36.711Z,98554.22
2018-03-03T18:27:04.094Z,98555.70
2018-03-03T18:29:31.496Z,98548.90
2018-03-03T18:31:58.890Z,98551.05
2018-03-03T18:34:26.278Z,98556.70
2018-03-03T18:36:53.676Z,98554.34
2018-03-03T18:39:21.678Z,98554.69
2018-03-03T18:41:49.014Z,98558.50
2018-03-03T18:44:16.631Z,98557.70
2018-03-03T18:46:44.119Z,98562.37
2018-03-03T18:49:11.558Z,98561.83
2018-03-03T18:51:38.993Z,98562.70
2018-03-03T18:54:06.440Z,98559.92
2018-03-03T18:56:33.833Z,98560.13
2018-03-03T18:59:01.481Z,98560.79
2018-03-03T19:01:29.171Z,98563.63
2018-03-03T19:03:56.665Z,98562.16
2018-03-03T19:06:24.061Z,98568.00
2018-03-03T19:08:51.669Z,98563.50
2018-03-03T19:11:19.045Z,98567.80
2018-03-03T19:13:46.570Z,98572.22
2018-03-03T19:16:13.987Z,98575.84
2018-03-03T19:18:41.365Z,98576.22
2018-03-03T19:21:08.920Z,98583.28
2018-03-03T19:23:36.473Z,98581.13
2018-03-03T19:26:03.939Z,98579.64
2018-03-03T19:28:31.341Z,98577.34
2018-03-03T19:30:58.743Z,98580.95
2018-03-03T19:33:26.150Z,98588.07
2018-03-03T19:35:53.537Z,98597.27
2018-03-03T19:38:21.846Z,98591.13
2018-03-03T19:40:49.226Z,98596.11
2018-03-03T19:43:16.793Z,98596.10
2018-03-03T19:45:44.228Z,98597.59
2018-03-03T19:48:11.695Z,98599.12
2018-03-03T19:50:39.120Z,98601.78
2018-03-03T19:53:06.521Z,98611.45
2018-03-03T19:55:33.968Z,98613.43
2018-03-03T19:58:01.500Z,98612.19
2018-03-03T20:00:28.887Z,98615.77
2018-03-03T20:02:56.324Z,98616.76
2018-03-03T20:05:23.877Z,98617.82
2018-03-03T20:07:51.882Z,98621.23
2018-03-03T20:10:19.333Z,98623.20
2018-03-03T20:12:46.765Z,98621.73
2018-03-03T20:15:14.137Z,98628.68
2018-03-03T20:17:41.568Z,98631.16
2018-03-03T20:20:08.963Z,98629.45
2018-03-03T20:22:36.364Z,98626.88
2018-03-03T20:25:03.782Z,98634.16
2018-03-03T20:27:31.198Z,98633.69
2018-03-03T20:29:58.581Z,98633.33
2018-03-03T20:32:25.980Z,98636.47
2018-03-03T20:34:54.314Z,98634.31
2018-03-03T20:37:22.002Z,98644.16
2018-03-03T20:39:49.412Z,98641.73
2018-03-03T20:42:19.856Z,98643.09
2018-03-03T20:44:47.362Z,98646.61
2018-03-03T20:47:15.253Z,98650.98
2018-03-03T20:49:42.695Z,98642.58
2018-03-03T20:52:10.265Z,98647.77
2018-03-03T20:54:37.776Z,98644.16
2018-03-03T20:57:05.537Z,98649.89
2018-03-03T20:59:33.048Z,98649.19
2018-03-03T21:02:00.509Z,98650.65
2018-03-03T21:04:27.904Z,98654.53
2018-03-03T21:06:55.276Z,98648.48
2018-03-03T21:09:22.672Z,98648.73
2018-03-03T21:12:05.844Z,98647.34
2018-03-03T21:14:33.371Z,98649.27
2018-03-03T21:17:00.827Z,98646.89
2018-03-03T21:19:28.219Z,98650.00
2018-03-03T21:21:55.637Z,98650.49
2018-03-03T21:24:23.036Z,98646.61
2018-03-03T21:26:50.429Z,98654.81
2018-03-03T21:29:17.853Z,98649.02
2018-03-03T21:31:45.221Z,98641.38
2018-03-03T21:34:12.704Z,98641.39
2018-03-03T21:36:40.107Z,98643.53
2018-03-03T21:39:07.497Z,98646.19
2018-03-03T21:41:35.681Z,98640.57
2018-03-03T21:44:03.150Z,98641.81
2018-03-03T21:46:30.544Z,98639.53
2018-03-03T21:48:57.988Z,98637.72
2018-03-03T21:51:33.192Z,98638.25
2018-03-03T21:54:01.106Z,98639.08
2018-03-03T21:56:28.571Z,98639.73
2018-03-03T21:58:55.943Z,98641.12
2018-03-03T22:01:23.326Z,98638.81
2018-03-03T22:03:50.752Z,98640.19
2018-03-03T22:06:20.927Z,98641.67
2018-03-03T22:08:48.402Z,98641.70
2018-03-03T22:11:15.797Z,98645.12
2018-03-03T22:13:43.185Z,98637.77
2018-03-03T22:16:10.577Z,98640.06
2018-03-03T22:18:37.981Z,98643.39
2018-03-03T22:21:05.376Z,98643.33
2018-03-03T22:23:32.761Z,98642.95
2018-03-03T22:26:00.159Z,98639.88
2018-03-03T22:28:27.589Z,98637.93
2018-03-03T22:30:54.986Z,98642.12
2018-03-03T22:33:22.630Z,98640.12
2018-03-03T22:35:50.032Z,98644.48
2018-03-03T22:38:17.471Z,98640.47
2018-03-03T22:40:44.841Z,98641.56
2018-03-03T22:43:12.224Z,98646.20
2018-03-03T22:45:39.609Z,98643.30
2018-03-03T22:48:07.014Z,98643.00
2018-03-03T22:50:34.428Z,98644.55
2018-03-03T22:53:01.819Z,98650.39
2018-03-03T22:55:29.249Z,98652.10
2018-03-03T22:57:56.695Z,98654.43
2018-03-03T23:00:24.088Z,98652.37
2018-03-03T23:02:51.502Z,98656.50
2018-03-03T23:05:18.925Z,98657.48
2018-03-03T23:07:46.357Z,98660.42
2018-03-03T23:10:13.863Z,98662.57
2018-03-03T23:12:41.272Z,98663.19
2018-03-03T23:15:08.681Z,98660.30
2018-03-03T23:17:36.119Z,98662.57
2018-03-03T23:20:03.502Z,98664.33
2018-03-03T23:22:30.900Z,98672.72
2018-03-03T23:24:58.361Z,98668.53
2018-03-03T23:27:25.745Z,98676.20
2018-03-03T23:29:53.152Z,98679.47
2018-03-03T23:32:20.520Z,98676.04
2018-03-03T23:34:47.917Z,98682.89
2018-03-03T23:37:15.291Z,98684.91
2018-03-03T23:39:49.029Z,98687.95
2018-03-03T23:42:24.476Z,98690.41
2018-03-03T23:44:52.868Z,98686.27
2018-03-03T23:47:20.273Z,98690.37
2018-03-03T23:49:47.745Z,98688.00
2018-03-03T23:52:15.136Z,98687.73
2018-03-03T23:54:42.530Z,98694.91
2018-03-03T23:57:10.408Z,98698.88
2018-03-03T23:59:37.969Z,98694.48
